Fort Myers Beach, Florida
Current Conditions -  °F | °C
As of 11:53 AM on Saturday 22 Nov 2014 (Local Time) from KFMY Reporting Station
Broken Clouds Broken Clouds  
Wind Chill: 80°   Ceiling: 3700
Heat Index: 83°   Visibility: 10mi
Dew Point: 68°   Wind: 17mph
Humidity: 67%   Direction: 110°ESE
Pressure: 30.15"   Gusts: 24mph
Location:  26.45°N, 81.94°W
Report Text: KFMY 221653Z 11015G21KT 10SM SCT028 BKN037 27/20 A3015 RMK AO2 SLP210 T02670200
Loading
Personal Weather Stations






























Interactive Weather Map New forecast layout! Learn more

10-Day Weather Forecast

Advertisements
Track Severe Weather on mobile